sensor_id;sensor_type;location;lat;lon;timestamp;P1;durP1;ratioP1;P2;durP2;ratioP2
29848;SDS011;16728;50.832;5.590;2024-01-25T00:00:22;45.42;;;8.98;;
29848;SDS011;16728;50.832;5.590;2024-01-25T00:03:24;60.03;;;9.50;;
29848;SDS011;16728;50.832;5.590;2024-01-25T00:06:30;38.85;;;7.63;;
29848;SDS011;16728;50.832;5.590;2024-01-25T00:09:32;44.95;;;9.05;;
29848;SDS011;16728;50.832;5.590;2024-01-25T00:12:38;51.25;;;9.07;;
29848;SDS011;16728;50.832;5.590;2024-01-25T00:15:40;47.28;;;7.70;;
29848;SDS011;16728;50.832;5.590;2024-01-25T00:18:42;46.35;;;8.27;;
29848;SDS011;16728;50.832;5.590;2024-01-25T00:21:45;44.73;;;9.50;;
29848;SDS011;16728;50.832;5.590;2024-01-25T00:24:47;33.83;;;8.10;;
29848;SDS011;16728;50.832;5.590;2024-01-25T00:27:50;49.40;;;9.68;;
29848;SDS011;16728;50.832;5.590;2024-01-25T00:30:53;44.47;;;7.88;;
29848;SDS011;16728;50.832;5.590;2024-01-25T00:33:56;41.87;;;8.27;;
29848;SDS011;16728;50.832;5.590;2024-01-25T00:36:59;54.78;;;9.13;;
29848;SDS011;16728;50.832;5.590;2024-01-25T00:40:02;56.53;;;9.10;;
29848;SDS011;16728;50.832;5.590;2024-01-25T00:43:04;45.53;;;8.82;;
29848;SDS011;16728;50.832;5.590;2024-01-25T00:46:07;40.40;;;7.50;;
29848;SDS011;16728;50.832;5.590;2024-01-25T00:49:10;46.70;;;8.82;;
29848;SDS011;16728;50.832;5.590;2024-01-25T00:52:13;50.70;;;7.80;;
29848;SDS011;16728;50.832;5.590;2024-01-25T00:55:15;49.80;;;8.90;;
29848;SDS011;16728;50.832;5.590;2024-01-25T00:58:18;50.92;;;8.85;;
29848;SDS011;16728;50.832;5.590;2024-01-25T01:01:20;44.22;;;7.85;;
29848;SDS011;16728;50.832;5.590;2024-01-25T01:04:24;52.78;;;9.95;;
29848;SDS011;16728;50.832;5.590;2024-01-25T01:07:27;42.88;;;9.32;;
29848;SDS011;16728;50.832;5.590;2024-01-25T01:10:29;49.33;;;9.35;;
29848;SDS011;16728;50.832;5.590;2024-01-25T01:13:32;47.20;;;8.43;;
29848;SDS011;16728;50.832;5.590;2024-01-25T01:16:34;36.30;;;8.13;;
29848;SDS011;16728;50.832;5.590;2024-01-25T01:19:37;47.22;;;9.13;;
29848;SDS011;16728;50.832;5.590;2024-01-25T01:22:39;52.55;;;9.85;;
29848;SDS011;16728;50.832;5.590;2024-01-25T01:25:42;39.65;;;8.35;;
29848;SDS011;16728;50.832;5.590;2024-01-25T01:28:44;48.30;;;9.30;;
29848;SDS011;16728;50.832;5.590;2024-01-25T01:31:46;46.58;;;9.00;;
29848;SDS011;16728;50.832;5.590;2024-01-25T01:34:48;51.45;;;9.15;;
29848;SDS011;16728;50.832;5.590;2024-01-25T01:37:51;46.42;;;8.75;;
29848;SDS011;16728;50.832;5.590;2024-01-25T01:40:53;43.83;;;8.60;;
29848;SDS011;16728;50.832;5.590;2024-01-25T01:43:55;51.63;;;9.38;;
29848;SDS011;16728;50.832;5.590;2024-01-25T01:46:58;52.67;;;8.35;;
29848;SDS011;16728;50.832;5.590;2024-01-25T01:50:01;40.63;;;8.63;;
29848;SDS011;16728;50.832;5.590;2024-01-25T01:53:04;51.45;;;9.20;;
29848;SDS011;16728;50.832;5.590;2024-01-25T01:56:06;52.97;;;9.73;;
29848;SDS011;16728;50.832;5.590;2024-01-25T01:59:09;44.25;;;7.85;;
29848;SDS011;16728;50.832;5.590;2024-01-25T02:02:14;34.40;;;7.85;;
29848;SDS011;16728;50.832;5.590;2024-01-25T02:05:16;38.90;;;8.20;;
29848;SDS011;16728;50.832;5.590;2024-01-25T02:08:19;45.38;;;8.55;;
29848;SDS011;16728;50.832;5.590;2024-01-25T02:11:21;56.58;;;9.13;;
29848;SDS011;16728;50.832;5.590;2024-01-25T02:14:23;41.58;;;8.93;;
29848;SDS011;16728;50.832;5.590;2024-01-25T02:17:25;45.33;;;7.38;;
29848;SDS011;16728;50.832;5.590;2024-01-25T02:20:28;41.43;;;7.43;;
29848;SDS011;16728;50.832;5.590;2024-01-25T02:23:30;42.78;;;7.75;;
29848;SDS011;16728;50.832;5.590;2024-01-25T02:26:32;49.00;;;8.00;;
29848;SDS011;16728;50.832;5.590;2024-01-25T02:29:35;40.70;;;8.00;;
29848;SDS011;16728;50.832;5.590;2024-01-25T02:32:41;48.92;;;8.90;;
29848;SDS011;16728;50.832;5.590;2024-01-25T02:35:44;38.90;;;8.38;;
29848;SDS011;16728;50.832;5.590;2024-01-25T02:38:46;47.03;;;8.30;;
29848;SDS011;16728;50.832;5.590;2024-01-25T02:41:49;36.10;;;7.03;;
29848;SDS011;16728;50.832;5.590;2024-01-25T02:44:51;45.17;;;8.77;;
29848;SDS011;16728;50.832;5.590;2024-01-25T02:47:53;43.45;;;8.77;;
29848;SDS011;16728;50.832;5.590;2024-01-25T02:50:57;39.72;;;8.52;;
29848;SDS011;16728;50.832;5.590;2024-01-25T02:54:02;45.63;;;8.45;;
29848;SDS011;16728;50.832;5.590;2024-01-25T02:57:05;38.07;;;9.00;;
29848;SDS011;16728;50.832;5.590;2024-01-25T03:00:07;42.88;;;8.63;;
29848;SDS011;16728;50.832;5.590;2024-01-25T03:03:10;45.37;;;8.40;;
29848;SDS011;16728;50.832;5.590;2024-01-25T03:06:12;45.88;;;8.43;;
29848;SDS011;16728;50.832;5.590;2024-01-25T03:09:14;37.30;;;8.57;;
29848;SDS011;16728;50.832;5.590;2024-01-25T03:12:17;40.55;;;8.98;;
29848;SDS011;16728;50.832;5.590;2024-01-25T03:15:19;43.25;;;9.60;;
29848;SDS011;16728;50.832;5.590;2024-01-25T03:18:21;48.22;;;10.02;;
29848;SDS011;16728;50.832;5.590;2024-01-25T03:21:24;41.30;;;9.40;;
29848;SDS011;16728;50.832;5.590;2024-01-25T03:24:26;41.45;;;7.78;;
29848;SDS011;16728;50.832;5.590;2024-01-25T03:27:28;42.58;;;7.95;;
29848;SDS011;16728;50.832;5.590;2024-01-25T03:30:30;43.53;;;9.07;;
29848;SDS011;16728;50.832;5.590;2024-01-25T03:33:33;42.03;;;8.93;;
29848;SDS011;16728;50.832;5.590;2024-01-25T03:36:35;40.40;;;7.97;;
29848;SDS011;16728;50.832;5.590;2024-01-25T03:39:38;48.47;;;9.20;;
29848;SDS011;16728;50.832;5.590;2024-01-25T03:42:40;48.05;;;7.80;;
29848;SDS011;16728;50.832;5.590;2024-01-25T03:45:51;43.78;;;8.50;;
29848;SDS011;16728;50.832;5.590;2024-01-25T03:48:53;55.80;;;9.17;;
29848;SDS011;16728;50.832;5.590;2024-01-25T03:51:56;52.50;;;8.27;;
29848;SDS011;16728;50.832;5.590;2024-01-25T03:55:00;42.95;;;8.18;;
29848;SDS011;16728;50.832;5.590;2024-01-25T03:58:03;40.80;;;7.73;;
29848;SDS011;16728;50.832;5.590;2024-01-25T04:01:05;50.08;;;7.90;;
29848;SDS011;16728;50.832;5.590;2024-01-25T04:04:07;49.85;;;8.15;;
29848;SDS011;16728;50.832;5.590;2024-01-25T04:07:12;43.90;;;8.75;;
29848;SDS011;16728;50.832;5.590;2024-01-25T04:10:14;32.93;;;8.20;;
29848;SDS011;16728;50.832;5.590;2024-01-25T04:13:17;40.38;;;8.02;;
29848;SDS011;16728;50.832;5.590;2024-01-25T04:16:19;51.83;;;9.13;;
29848;SDS011;16728;50.832;5.590;2024-01-25T04:19:21;44.95;;;7.97;;
29848;SDS011;16728;50.832;5.590;2024-01-25T04:22:24;42.58;;;7.30;;
29848;SDS011;16728;50.832;5.590;2024-01-25T04:25:26;36.38;;;7.95;;
29848;SDS011;16728;50.832;5.590;2024-01-25T04:28:30;39.85;;;7.45;;
29848;SDS011;16728;50.832;5.590;2024-01-25T04:31:32;44.90;;;8.05;;
29848;SDS011;16728;50.832;5.590;2024-01-25T04:34:35;39.97;;;6.83;;
29848;SDS011;16728;50.832;5.590;2024-01-25T04:37:38;53.17;;;8.60;;
29848;SDS011;16728;50.832;5.590;2024-01-25T04:40:40;42.20;;;7.83;;
29848;SDS011;16728;50.832;5.590;2024-01-25T04:43:42;42.70;;;7.32;;
29848;SDS011;16728;50.832;5.590;2024-01-25T04:49:48;44.53;;;8.10;;
29848;SDS011;16728;50.832;5.590;2024-01-25T04:52:51;40.63;;;7.45;;
29848;SDS011;16728;50.832;5.590;2024-01-25T04:55:56;38.35;;;7.93;;
29848;SDS011;16728;50.832;5.590;2024-01-25T04:59:01;52.92;;;8.45;;
29848;SDS011;16728;50.832;5.590;2024-01-25T05:02:05;38.13;;;7.43;;
29848;SDS011;16728;50.832;5.590;2024-01-25T05:05:08;44.90;;;8.30;;
29848;SDS011;16728;50.832;5.590;2024-01-25T05:08:10;46.75;;;7.97;;
29848;SDS011;16728;50.832;5.590;2024-01-25T05:11:12;49.87;;;8.67;;
29848;SDS011;16728;50.832;5.590;2024-01-25T05:14:14;43.92;;;7.25;;
29848;SDS011;16728;50.832;5.590;2024-01-25T05:17:17;39.53;;;7.80;;
29848;SDS011;16728;50.832;5.590;2024-01-25T05:20:19;38.75;;;8.00;;
29848;SDS011;16728;50.832;5.590;2024-01-25T05:23:21;33.75;;;7.25;;
29848;SDS011;16728;50.832;5.590;2024-01-25T05:26:24;42.17;;;7.72;;
29848;SDS011;16728;50.832;5.590;2024-01-25T05:29:26;33.80;;;8.00;;
29848;SDS011;16728;50.832;5.590;2024-01-25T05:32:28;35.80;;;7.75;;
29848;SDS011;16728;50.832;5.590;2024-01-25T05:35:31;38.65;;;8.30;;
29848;SDS011;16728;50.832;5.590;2024-01-25T05:38:36;38.72;;;7.20;;
29848;SDS011;16728;50.832;5.590;2024-01-25T05:41:38;36.05;;;7.75;;
29848;SDS011;16728;50.832;5.590;2024-01-25T05:44:44;41.37;;;6.97;;
29848;SDS011;16728;50.832;5.590;2024-01-25T05:47:47;39.05;;;7.15;;
29848;SDS011;16728;50.832;5.590;2024-01-25T05:50:51;40.67;;;7.60;;
29848;SDS011;16728;50.832;5.590;2024-01-25T05:53:53;44.35;;;7.55;;
29848;SDS011;16728;50.832;5.590;2024-01-25T05:56:56;41.85;;;8.00;;
29848;SDS011;16728;50.832;5.590;2024-01-25T05:59:58;34.10;;;6.85;;
29848;SDS011;16728;50.832;5.590;2024-01-25T06:03:01;44.37;;;8.30;;
29848;SDS011;16728;50.832;5.590;2024-01-25T06:06:03;36.50;;;6.93;;
29848;SDS011;16728;50.832;5.590;2024-01-25T06:12:17;53.17;;;17.33;;
29848;SDS011;16728;50.832;5.590;2024-01-25T06:15:20;38.85;;;10.05;;
29848;SDS011;16728;50.832;5.590;2024-01-25T06:18:22;36.10;;;7.87;;
29848;SDS011;16728;50.832;5.590;2024-01-25T06:21:25;40.20;;;7.40;;
29848;SDS011;16728;50.832;5.590;2024-01-25T06:24:27;35.90;;;7.28;;
29848;SDS011;16728;50.832;5.590;2024-01-25T06:27:29;29.48;;;7.82;;
29848;SDS011;16728;50.832;5.590;2024-01-25T06:30:32;39.10;;;6.87;;
29848;SDS011;16728;50.832;5.590;2024-01-25T06:33:34;39.85;;;8.45;;
29848;SDS011;16728;50.832;5.590;2024-01-25T06:36:36;45.83;;;7.07;;
29848;SDS011;16728;50.832;5.590;2024-01-25T06:39:39;33.10;;;7.20;;
29848;SDS011;16728;50.832;5.590;2024-01-25T06:42:41;41.45;;;7.40;;
29848;SDS011;16728;50.832;5.590;2024-01-25T06:45:44;35.80;;;6.78;;
29848;SDS011;16728;50.832;5.590;2024-01-25T06:48:47;43.85;;;7.63;;
29848;SDS011;16728;50.832;5.590;2024-01-25T06:51:49;35.67;;;7.87;;
29848;SDS011;16728;50.832;5.590;2024-01-25T06:54:51;27.90;;;6.85;;
29848;SDS011;16728;50.832;5.590;2024-01-25T06:57:54;32.63;;;6.63;;
29848;SDS011;16728;50.832;5.590;2024-01-25T07:00:56;39.83;;;7.15;;
29848;SDS011;16728;50.832;5.590;2024-01-25T07:03:59;40.53;;;7.70;;
29848;SDS011;16728;50.832;5.590;2024-01-25T07:07:02;41.50;;;7.72;;
29848;SDS011;16728;50.832;5.590;2024-01-25T07:10:11;40.13;;;7.70;;
29848;SDS011;16728;50.832;5.590;2024-01-25T07:13:14;57.92;;;16.52;;
29848;SDS011;16728;50.832;5.590;2024-01-25T07:16:17;46.47;;;11.15;;
29848;SDS011;16728;50.832;5.590;2024-01-25T07:19:21;51.42;;;9.07;;
29848;SDS011;16728;50.832;5.590;2024-01-25T07:22:23;45.37;;;8.80;;
29848;SDS011;16728;50.832;5.590;2024-01-25T07:25:26;35.70;;;7.53;;
29848;SDS011;16728;50.832;5.590;2024-01-25T07:28:28;36.08;;;7.68;;
29848;SDS011;16728;50.832;5.590;2024-01-25T07:31:31;37.63;;;7.80;;
29848;SDS011;16728;50.832;5.590;2024-01-25T07:34:33;45.30;;;9.00;;
29848;SDS011;16728;50.832;5.590;2024-01-25T07:37:36;35.90;;;7.40;;
29848;SDS011;16728;50.832;5.590;2024-01-25T07:40:38;44.47;;;8.13;;
29848;SDS011;16728;50.832;5.590;2024-01-25T07:43:41;39.63;;;7.63;;
29848;SDS011;16728;50.832;5.590;2024-01-25T07:46:44;44.40;;;7.95;;
29848;SDS011;16728;50.832;5.590;2024-01-25T07:49:46;37.65;;;7.40;;
29848;SDS011;16728;50.832;5.590;2024-01-25T07:52:49;47.83;;;8.38;;
29848;SDS011;16728;50.832;5.590;2024-01-25T07:55:51;38.38;;;8.15;;
29848;SDS011;16728;50.832;5.590;2024-01-25T07:58:53;43.35;;;8.35;;
29848;SDS011;16728;50.832;5.590;2024-01-25T08:01:56;43.57;;;8.57;;
29848;SDS011;16728;50.832;5.590;2024-01-25T08:04:58;51.50;;;10.90;;
29848;SDS011;16728;50.832;5.590;2024-01-25T08:11:07;34.80;;;11.32;;
29848;SDS011;16728;50.832;5.590;2024-01-25T08:14:10;59.65;;;27.90;;
29848;SDS011;16728;50.832;5.590;2024-01-25T08:17:13;33.88;;;12.45;;
29848;SDS011;16728;50.832;5.590;2024-01-25T08:20:15;29.02;;;11.93;;
29848;SDS011;16728;50.832;5.590;2024-01-25T08:23:17;28.85;;;12.25;;
29848;SDS011;16728;50.832;5.590;2024-01-25T08:26:20;33.67;;;12.77;;
29848;SDS011;16728;50.832;5.590;2024-01-25T08:29:22;35.60;;;13.05;;
29848;SDS011;16728;50.832;5.590;2024-01-25T08:32:24;33.03;;;13.75;;
29848;SDS011;16728;50.832;5.590;2024-01-25T08:35:27;48.90;;;15.32;;
29848;SDS011;16728;50.832;5.590;2024-01-25T08:38:29;62.87;;;16.93;;
29848;SDS011;16728;50.832;5.590;2024-01-25T08:41:31;59.00;;;17.60;;
29848;SDS011;16728;50.832;5.590;2024-01-25T08:44:33;60.80;;;17.25;;
29848;SDS011;16728;50.832;5.590;2024-01-25T08:47:36;61.17;;;17.20;;
29848;SDS011;16728;50.832;5.590;2024-01-25T08:50:39;59.75;;;18.80;;
29848;SDS011;16728;50.832;5.590;2024-01-25T08:53:42;62.00;;;19.75;;
29848;SDS011;16728;50.832;5.590;2024-01-25T08:56:44;61.65;;;19.48;;
29848;SDS011;16728;50.832;5.590;2024-01-25T08:59:46;70.65;;;20.38;;
29848;SDS011;16728;50.832;5.590;2024-01-25T09:02:48;71.50;;;20.45;;
29848;SDS011;16728;50.832;5.590;2024-01-25T09:05:51;61.80;;;21.27;;
29848;SDS011;16728;50.832;5.590;2024-01-25T09:08:53;70.60;;;22.45;;
29848;SDS011;16728;50.832;5.590;2024-01-25T09:11:56;70.63;;;21.48;;
29848;SDS011;16728;50.832;5.590;2024-01-25T09:14:58;81.72;;;23.58;;
29848;SDS011;16728;50.832;5.590;2024-01-25T09:18:01;70.85;;;22.98;;
29848;SDS011;16728;50.832;5.590;2024-01-25T09:21:03;57.20;;;21.33;;
29848;SDS011;16728;50.832;5.590;2024-01-25T09:24:06;64.22;;;21.00;;
29848;SDS011;16728;50.832;5.590;2024-01-25T09:27:08;47.50;;;14.82;;
29848;SDS011;16728;50.832;5.590;2024-01-25T09:30:11;53.63;;;19.08;;
29848;SDS011;16728;50.832;5.590;2024-01-25T09:33:14;38.90;;;13.63;;
29848;SDS011;16728;50.832;5.590;2024-01-25T09:36:17;52.72;;;18.70;;
29848;SDS011;16728;50.832;5.590;2024-01-25T09:39:19;54.70;;;19.58;;
29848;SDS011;16728;50.832;5.590;2024-01-25T09:42:23;58.83;;;18.92;;
29848;SDS011;16728;50.832;5.590;2024-01-25T09:45:25;48.63;;;17.52;;
29848;SDS011;16728;50.832;5.590;2024-01-25T09:48:27;48.95;;;17.73;;
29848;SDS011;16728;50.832;5.590;2024-01-25T09:51:32;60.40;;;19.42;;
29848;SDS011;16728;50.832;5.590;2024-01-25T09:54:38;58.33;;;19.48;;
29848;SDS011;16728;50.832;5.590;2024-01-25T09:57:41;66.93;;;20.05;;
29848;SDS011;16728;50.832;5.590;2024-01-25T10:03:46;53.38;;;19.85;;
29848;SDS011;16728;50.832;5.590;2024-01-25T10:06:49;62.22;;;22.27;;
29848;SDS011;16728;50.832;5.590;2024-01-25T10:09:51;69.78;;;20.75;;
29848;SDS011;16728;50.832;5.590;2024-01-25T10:12:55;61.88;;;21.50;;
29848;SDS011;16728;50.832;5.590;2024-01-25T10:15:58;66.20;;;21.30;;
29848;SDS011;16728;50.832;5.590;2024-01-25T10:19:01;56.83;;;20.92;;
29848;SDS011;16728;50.832;5.590;2024-01-25T10:22:05;58.30;;;19.40;;
29848;SDS011;16728;50.832;5.590;2024-01-25T10:25:13;60.50;;;19.08;;
29848;SDS011;16728;50.832;5.590;2024-01-25T10:28:16;46.33;;;17.85;;
29848;SDS011;16728;50.832;5.590;2024-01-25T10:31:23;39.63;;;14.98;;
29848;SDS011;16728;50.832;5.590;2024-01-25T10:34:28;50.10;;;15.35;;
29848;SDS011;16728;50.832;5.590;2024-01-25T10:37:31;46.88;;;14.30;;
29848;SDS011;16728;50.832;5.590;2024-01-25T10:40:34;56.25;;;14.50;;
29848;SDS011;16728;50.832;5.590;2024-01-25T10:43:37;45.92;;;13.93;;
29848;SDS011;16728;50.832;5.590;2024-01-25T10:46:39;44.70;;;13.97;;
29848;SDS011;16728;50.832;5.590;2024-01-25T10:49:42;54.30;;;14.43;;
29848;SDS011;16728;50.832;5.590;2024-01-25T10:52:45;48.10;;;14.05;;
29848;SDS011;16728;50.832;5.590;2024-01-25T10:55:48;44.30;;;14.02;;
29848;SDS011;16728;50.832;5.590;2024-01-25T10:58:51;44.70;;;13.73;;
29848;SDS011;16728;50.832;5.590;2024-01-25T11:01:54;47.70;;;14.40;;
29848;SDS011;16728;50.832;5.590;2024-01-25T11:04:57;48.05;;;11.90;;
29848;SDS011;16728;50.832;5.590;2024-01-25T11:08:02;48.08;;;13.52;;
29848;SDS011;16728;50.832;5.590;2024-01-25T11:11:06;44.50;;;13.13;;
29848;SDS011;16728;50.832;5.590;2024-01-25T11:14:11;42.10;;;11.85;;
29848;SDS011;16728;50.832;5.590;2024-01-25T11:17:21;39.83;;;12.10;;
29848;SDS011;16728;50.832;5.590;2024-01-25T11:20:23;46.90;;;12.13;;
29848;SDS011;16728;50.832;5.590;2024-01-25T11:23:31;39.63;;;11.50;;
29848;SDS011;16728;50.832;5.590;2024-01-25T11:26:34;44.80;;;11.52;;
29848;SDS011;16728;50.832;5.590;2024-01-25T11:29:36;37.90;;;10.98;;
29848;SDS011;16728;50.832;5.590;2024-01-25T11:32:42;36.90;;;9.55;;
29848;SDS011;16728;50.832;5.590;2024-01-25T11:35:53;39.65;;;9.38;;
29848;SDS011;16728;50.832;5.590;2024-01-25T11:38:57;37.28;;;10.38;;
29848;SDS011;16728;50.832;5.590;2024-01-25T11:41:59;37.20;;;9.77;;
29848;SDS011;16728;50.832;5.590;2024-01-25T11:45:02;37.63;;;8.73;;
29848;SDS011;16728;50.832;5.590;2024-01-25T11:48:04;42.40;;;10.17;;
29848;SDS011;16728;50.832;5.590;2024-01-25T11:51:09;41.75;;;9.27;;
29848;SDS011;16728;50.832;5.590;2024-01-25T11:54:12;49.78;;;14.60;;
29848;SDS011;16728;50.832;5.590;2024-01-25T11:57:14;39.80;;;13.70;;
29848;SDS011;16728;50.832;5.590;2024-01-25T12:00:17;59.10;;;14.05;;
29848;SDS011;16728;50.832;5.590;2024-01-25T12:03:20;51.97;;;10.90;;
29848;SDS011;16728;50.832;5.590;2024-01-25T12:06:23;39.13;;;9.60;;
29848;SDS011;16728;50.832;5.590;2024-01-25T12:09:25;38.65;;;8.38;;
29848;SDS011;16728;50.832;5.590;2024-01-25T12:12:28;42.47;;;8.32;;
29848;SDS011;16728;50.832;5.590;2024-01-25T12:15:34;44.72;;;9.40;;
29848;SDS011;16728;50.832;5.590;2024-01-25T12:18:37;37.78;;;8.98;;
29848;SDS011;16728;50.832;5.590;2024-01-25T12:21:43;37.85;;;8.73;;
29848;SDS011;16728;50.832;5.590;2024-01-25T12:24:46;34.22;;;7.38;;
29848;SDS011;16728;50.832;5.590;2024-01-25T12:28:00;33.28;;;8.52;;
29848;SDS011;16728;50.832;5.590;2024-01-25T12:31:05;39.40;;;11.57;;
29848;SDS011;16728;50.832;5.590;2024-01-25T12:37:11;40.33;;;7.30;;
29848;SDS011;16728;50.832;5.590;2024-01-25T12:40:13;32.70;;;7.07;;
29848;SDS011;16728;50.832;5.590;2024-01-25T12:43:16;32.58;;;6.50;;
29848;SDS011;16728;50.832;5.590;2024-01-25T12:46:18;33.58;;;6.47;;
29848;SDS011;16728;50.832;5.590;2024-01-25T12:49:28;31.02;;;6.82;;
29848;SDS011;16728;50.832;5.590;2024-01-25T12:52:30;35.00;;;7.73;;
29848;SDS011;16728;50.832;5.590;2024-01-25T12:55:33;26.93;;;7.30;;
29848;SDS011;16728;50.832;5.590;2024-01-25T12:58:36;31.40;;;6.70;;
29848;SDS011;16728;50.832;5.590;2024-01-25T13:01:39;27.83;;;7.40;;
29848;SDS011;16728;50.832;5.590;2024-01-25T13:04:41;30.38;;;6.50;;
29848;SDS011;16728;50.832;5.590;2024-01-25T13:07:43;26.35;;;6.35;;
29848;SDS011;16728;50.832;5.590;2024-01-25T13:10:46;28.42;;;6.47;;
29848;SDS011;16728;50.832;5.590;2024-01-25T13:13:49;29.33;;;7.07;;
29848;SDS011;16728;50.832;5.590;2024-01-25T13:16:52;37.33;;;7.00;;
29848;SDS011;16728;50.832;5.590;2024-01-25T13:19:56;28.63;;;6.20;;
29848;SDS011;16728;50.832;5.590;2024-01-25T13:22:59;30.25;;;6.65;;
29848;SDS011;16728;50.832;5.590;2024-01-25T13:26:01;27.98;;;6.05;;
29848;SDS011;16728;50.832;5.590;2024-01-25T13:29:03;27.17;;;6.65;;
29848;SDS011;16728;50.832;5.590;2024-01-25T13:32:06;29.85;;;6.90;;
29848;SDS011;16728;50.832;5.590;2024-01-25T13:35:08;29.27;;;7.05;;
29848;SDS011;16728;50.832;5.590;2024-01-25T13:38:10;30.05;;;6.28;;
29848;SDS011;16728;50.832;5.590;2024-01-25T13:41:16;43.63;;;15.35;;
29848;SDS011;16728;50.832;5.590;2024-01-25T13:44:18;38.97;;;9.07;;
29848;SDS011;16728;50.832;5.590;2024-01-25T13:47:20;29.27;;;6.40;;
29848;SDS011;16728;50.832;5.590;2024-01-25T13:53:25;35.03;;;6.68;;
29848;SDS011;16728;50.832;5.590;2024-01-25T13:56:28;25.73;;;6.32;;
29848;SDS011;16728;50.832;5.590;2024-01-25T13:59:30;30.98;;;6.75;;
29848;SDS011;16728;50.832;5.590;2024-01-25T14:02:32;28.50;;;7.10;;
29848;SDS011;16728;50.832;5.590;2024-01-25T14:05:34;26.75;;;7.25;;
29848;SDS011;16728;50.832;5.590;2024-01-25T14:08:37;21.48;;;6.60;;
29848;SDS011;16728;50.832;5.590;2024-01-25T14:11:41;26.37;;;6.27;;
29848;SDS011;16728;50.832;5.590;2024-01-25T14:17:45;19.15;;;5.85;;
29848;SDS011;16728;50.832;5.590;2024-01-25T14:20:49;15.07;;;4.70;;
29848;SDS011;16728;50.832;5.590;2024-01-25T14:23:51;20.83;;;4.60;;
29848;SDS011;16728;50.832;5.590;2024-01-25T14:26:53;12.90;;;4.13;;
29848;SDS011;16728;50.832;5.590;2024-01-25T14:29:56;18.77;;;4.95;;
29848;SDS011;16728;50.832;5.590;2024-01-25T14:32:58;17.97;;;4.67;;
29848;SDS011;16728;50.832;5.590;2024-01-25T14:36:01;17.47;;;4.60;;
29848;SDS011;16728;50.832;5.590;2024-01-25T14:39:05;18.35;;;5.45;;
29848;SDS011;16728;50.832;5.590;2024-01-25T14:42:09;12.77;;;4.28;;
29848;SDS011;16728;50.832;5.590;2024-01-25T14:45:15;13.82;;;4.45;;
29848;SDS011;16728;50.832;5.590;2024-01-25T14:48:17;15.85;;;4.38;;
29848;SDS011;16728;50.832;5.590;2024-01-25T14:51:20;13.60;;;4.10;;
29848;SDS011;16728;50.832;5.590;2024-01-25T14:54:22;10.80;;;3.30;;
29848;SDS011;16728;50.832;5.590;2024-01-25T14:57:24;12.57;;;3.90;;
29848;SDS011;16728;50.832;5.590;2024-01-25T15:00:27;16.27;;;4.38;;
29848;SDS011;16728;50.832;5.590;2024-01-25T15:03:29;12.73;;;3.33;;
29848;SDS011;16728;50.832;5.590;2024-01-25T15:06:31;10.98;;;4.28;;
29848;SDS011;16728;50.832;5.590;2024-01-25T15:09:34;10.43;;;3.37;;
29848;SDS011;16728;50.832;5.590;2024-01-25T15:12:36;9.52;;;3.35;;
29848;SDS011;16728;50.832;5.590;2024-01-25T15:15:40;5.82;;;3.10;;
29848;SDS011;16728;50.832;5.590;2024-01-25T15:18:45;7.55;;;2.65;;
29848;SDS011;16728;50.832;5.590;2024-01-25T15:24:50;5.80;;;2.55;;
29848;SDS011;16728;50.832;5.590;2024-01-25T15:27:52;6.63;;;2.87;;
29848;SDS011;16728;50.832;5.590;2024-01-25T15:30:55;8.10;;;3.30;;
29848;SDS011;16728;50.832;5.590;2024-01-25T15:33:58;16.08;;;3.83;;
29848;SDS011;16728;50.832;5.590;2024-01-25T15:37:01;19.77;;;12.77;;
29848;SDS011;16728;50.832;5.590;2024-01-25T15:40:04;10.80;;;7.15;;
29848;SDS011;16728;50.832;5.590;2024-01-25T15:43:12;5.65;;;3.30;;
29848;SDS011;16728;50.832;5.590;2024-01-25T15:46:15;6.75;;;3.10;;
29848;SDS011;16728;50.832;5.590;2024-01-25T15:49:19;6.30;;;2.50;;
29848;SDS011;16728;50.832;5.590;2024-01-25T15:52:24;6.55;;;2.60;;
29848;SDS011;16728;50.832;5.590;2024-01-25T15:55:26;7.53;;;6.27;;
29848;SDS011;16728;50.832;5.590;2024-01-25T15:58:29;8.93;;;6.57;;
29848;SDS011;16728;50.832;5.590;2024-01-25T16:01:31;4.63;;;3.00;;
29848;SDS011;16728;50.832;5.590;2024-01-25T16:04:33;4.88;;;2.85;;
29848;SDS011;16728;50.832;5.590;2024-01-25T16:07:36;4.07;;;2.33;;
29848;SDS011;16728;50.832;5.590;2024-01-25T16:10:43;4.50;;;2.45;;
29848;SDS011;16728;50.832;5.590;2024-01-25T16:13:46;5.15;;;2.70;;
29848;SDS011;16728;50.832;5.590;2024-01-25T16:16:48;4.82;;;2.80;;
29848;SDS011;16728;50.832;5.590;2024-01-25T16:19:51;4.82;;;2.42;;
29848;SDS011;16728;50.832;5.590;2024-01-25T16:22:53;5.70;;;2.65;;
29848;SDS011;16728;50.832;5.590;2024-01-25T16:25:55;5.68;;;2.97;;
29848;SDS011;16728;50.832;5.590;2024-01-25T16:28:58;5.75;;;2.72;;
29848;SDS011;16728;50.832;5.590;2024-01-25T16:32:00;5.50;;;2.78;;
29848;SDS011;16728;50.832;5.590;2024-01-25T16:35:02;4.10;;;2.50;;
29848;SDS011;16728;50.832;5.590;2024-01-25T16:38:05;5.23;;;2.77;;
29848;SDS011;16728;50.832;5.590;2024-01-25T16:41:07;3.97;;;2.72;;
29848;SDS011;16728;50.832;5.590;2024-01-25T16:44:10;8.90;;;3.20;;
29848;SDS011;16728;50.832;5.590;2024-01-25T16:47:12;11.38;;;8.18;;
29848;SDS011;16728;50.832;5.590;2024-01-25T16:50:14;11.45;;;5.97;;
29848;SDS011;16728;50.832;5.590;2024-01-25T16:53:17;5.35;;;3.90;;
29848;SDS011;16728;50.832;5.590;2024-01-25T16:56:20;5.47;;;3.15;;
29848;SDS011;16728;50.832;5.590;2024-01-25T16:59:22;4.35;;;3.30;;
29848;SDS011;16728;50.832;5.590;2024-01-25T17:02:24;5.65;;;3.25;;
29848;SDS011;16728;50.832;5.590;2024-01-25T17:05:27;6.17;;;4.13;;
29848;SDS011;16728;50.832;5.590;2024-01-25T17:08:29;6.40;;;3.70;;
29848;SDS011;16728;50.832;5.590;2024-01-25T17:11:31;6.97;;;3.17;;
29848;SDS011;16728;50.832;5.590;2024-01-25T17:14:35;7.10;;;3.97;;
29848;SDS011;16728;50.832;5.590;2024-01-25T17:17:38;7.38;;;4.00;;
29848;SDS011;16728;50.832;5.590;2024-01-25T17:20:40;4.53;;;3.40;;
29848;SDS011;16728;50.832;5.590;2024-01-25T17:23:43;6.38;;;3.90;;
29848;SDS011;16728;50.832;5.590;2024-01-25T17:26:45;5.78;;;4.03;;
29848;SDS011;16728;50.832;5.590;2024-01-25T17:29:49;8.65;;;4.28;;
29848;SDS011;16728;50.832;5.590;2024-01-25T17:32:51;4.65;;;3.50;;
29848;SDS011;16728;50.832;5.590;2024-01-25T17:35:54;5.03;;;3.92;;
29848;SDS011;16728;50.832;5.590;2024-01-25T17:38:56;6.38;;;4.10;;
29848;SDS011;16728;50.832;5.590;2024-01-25T17:41:58;4.43;;;3.78;;
29848;SDS011;16728;50.832;5.590;2024-01-25T17:45:00;6.28;;;4.40;;
29848;SDS011;16728;50.832;5.590;2024-01-25T17:48:03;7.55;;;4.60;;
29848;SDS011;16728;50.832;5.590;2024-01-25T17:51:05;6.23;;;4.57;;
29848;SDS011;16728;50.832;5.590;2024-01-25T17:54:07;6.45;;;4.93;;
29848;SDS011;16728;50.832;5.590;2024-01-25T17:57:10;7.65;;;4.55;;
29848;SDS011;16728;50.832;5.590;2024-01-25T18:00:12;5.50;;;4.20;;
29848;SDS011;16728;50.832;5.590;2024-01-25T18:03:15;6.03;;;4.60;;
29848;SDS011;16728;50.832;5.590;2024-01-25T18:06:17;7.78;;;4.75;;
29848;SDS011;16728;50.832;5.590;2024-01-25T18:09:19;8.77;;;4.65;;
29848;SDS011;16728;50.832;5.590;2024-01-25T18:12:25;8.75;;;4.53;;
29848;SDS011;16728;50.832;5.590;2024-01-25T18:15:27;7.82;;;5.20;;
29848;SDS011;16728;50.832;5.590;2024-01-25T18:18:29;7.32;;;5.22;;
29848;SDS011;16728;50.832;5.590;2024-01-25T18:21:32;6.13;;;5.45;;
29848;SDS011;16728;50.832;5.590;2024-01-25T18:24:34;7.45;;;5.28;;
29848;SDS011;16728;50.832;5.590;2024-01-25T18:27:37;6.57;;;5.57;;